Station: EHBK - 23/06/2018 04:25Z (il y a 9 minutes)
EHBK 230425Z AUTO VRB02KT 9999 FEW019 08/07 Q1028 NOSIG
Vent de direction variable: 2 kt
Visibilité > 10 km
Nuages épars à 1900 pieds
Température: +08ºC - Point de rosée: +07ºC - QNH: 1028 hPa
Pas de changement significatif prévu dans les 2 heures qui suivent l'observation